Time;durP1;ratioP1;P1;durP2;ratioP2;P2;SDS_P1;SDS_P2;PMS_P1;PMS_P2;Temp;Humidity;BMP_temperature;BMP_pressure;BME280_temperature;BME280_humidity;BME280_pressure;Samples;Min_cycle;Max_cycle;Signal;HPM_P1;HPM_P2
2023/08/24 00:01:25;;;;;;;0.30;0.30;;;;;;;;;;4973826;28;58379;-71
2023/08/24 00:03:50;;;;;;;0.40;0.40;;;;;;;;;;4975050;28;58539;-70
2023/08/24 00:06:16;;;;;;;0.30;0.30;;;;;;;;;;4973857;28;58477;-71
2023/08/24 00:08:41;;;;;;;0.30;0.30;;;;;;;;;;4973243;28;59085;-70
2023/08/24 00:11:07;;;;;;;0.30;0.30;;;;;;;;;;4973423;28;58655;-70
2023/08/24 00:13:32;;;;;;;0.70;0.50;;;;;;;;;;4972928;28;58279;-71
2023/08/24 00:15:58;;;;;;;0.50;0.30;;;;;;;;;;4969792;28;58429;-71
2023/08/24 00:18:24;;;;;;;0.60;0.30;;;;;;;;;;4969824;28;58680;-71
2023/08/24 00:20:49;;;;;;;0.32;0.32;;;;;;;;;;4973379;28;58684;-70
2023/08/24 00:23:14;;;;;;;1.63;0.40;;;;;;;;;;4971525;28;58898;-71
2023/08/24 00:25:40;;;;;;;0.30;0.30;;;;;;;;;;4971468;28;58483;-70
2023/08/24 00:28:06;;;;;;;0.22;0.22;;;;;;;;;;4955559;28;58761;-70
2023/08/24 00:30:31;;;;;;;0.40;0.30;;;;;;;;;;4973929;28;58928;-71
2023/08/24 00:32:56;;;;;;;1.33;0.30;;;;;;;;;;4974534;28;58572;-70
2023/08/24 00:35:21;;;;;;;0.35;0.20;;;;;;;;;;4973498;28;60429;-70
2023/08/24 00:37:46;;;;;;;0.30;0.30;;;;;;;;;;4971425;28;58930;-70
2023/08/24 00:40:12;;;;;;;0.30;0.30;;;;;;;;;;4972713;28;58331;-70
2023/08/24 00:42:38;;;;;;;0.20;0.20;;;;;;;;;;4973772;28;58598;-70
2023/08/24 00:45:03;;;;;;;0.63;0.20;;;;;;;;;;4971805;28;58285;-71
2023/08/24 00:47:29;;;;;;;0.53;0.53;;;;;;;;;;4972031;28;58411;-70
2023/08/24 00:49:54;;;;;;;0.30;0.30;;;;;;;;;;4969744;28;59099;-70
2023/08/24 00:52:19;;;;;;;0.40;0.32;;;;;;;;;;4973134;28;58413;-70
2023/08/24 00:54:45;;;;;;;0.30;0.30;;;;;;;;;;4972536;28;60016;-70
2023/08/24 00:57:10;;;;;;;0.90;0.60;;;;;;;;;;4969767;28;58795;-71
2023/08/24 00:59:35;;;;;;;0.55;0.40;;;;;;;;;;4955937;28;58273;-70
2023/08/24 01:02:01;;;;;;;0.30;0.30;;;;;;;;;;4971944;28;59253;-70
2023/08/24 01:04:26;;;;;;;0.20;0.20;;;;;;;;;;4969065;28;59176;-70
2023/08/24 01:06:52;;;;;;;0.20;0.20;;;;;;;;;;4972681;28;59478;-71
2023/08/24 01:09:18;;;;;;;0.30;0.30;;;;;;;;;;4972984;28;59148;-71
2023/08/24 01:11:43;;;;;;;0.10;0.10;;;;;;;;;;4975624;28;58423;-73
2023/08/24 01:14:17;;;;;;;0.40;0.17;;;;;;;;;;4973800;28;61047;-72
2023/08/24 01:16:44;;;;;;;0.30;0.20;;;;;;;;;;4971198;28;58946;-73
2023/08/24 01:19:13;;;;;;;0.40;0.40;;;;;;;;;;4976416;28;58484;-73
2023/08/24 01:21:39;;;;;;;0.22;0.20;;;;;;;;;;4972346;28;59918;-72
2023/08/24 01:24:08;;;;;;;0.40;0.20;;;;;;;;;;4976114;28;58480;-73
2023/08/24 01:26:34;;;;;;;0.95;0.73;;;;;;;;;;4970235;28;58412;-72
2023/08/24 01:28:59;;;;;;;0.52;0.32;;;;;;;;;;4973447;28;59059;-73
2023/08/24 01:31:24;;;;;;;0.20;0.20;;;;;;;;;;4971583;28;58656;-72
2023/08/24 01:33:49;;;;;;;0.27;0.20;;;;;;;;;;4974183;28;59264;-72
2023/08/24 01:36:16;;;;;;;0.38;0.30;;;;;;;;;;4973653;28;58721;-72
2023/08/24 01:38:42;;;;;;;0.10;0.10;;;;;;;;;;4973598;28;58408;-72
2023/08/24 01:41:19;;;;;;;0.10;0.10;;;;;;;;;;4975382;28;59800;-72
2023/08/24 01:43:45;;;;;;;0.20;0.20;;;;;;;;;;4973521;28;58888;-73
2023/08/24 01:46:15;;;;;;;0.30;0.20;;;;;;;;;;4968097;28;58450;-72
2023/08/24 01:48:40;;;;;;;0.20;0.20;;;;;;;;;;4971973;28;59882;-72
2023/08/24 01:51:06;;;;;;;0.13;0.13;;;;;;;;;;4973157;28;58458;-72
2023/08/24 01:53:32;;;;;;;0.43;0.43;;;;;;;;;;4973828;28;60272;-72
2023/08/24 01:55:57;;;;;;;0.82;0.45;;;;;;;;;;4972593;28;58641;-72
2023/08/24 01:58:22;;;;;;;0.40;0.40;;;;;;;;;;4973289;28;58364;-72
2023/08/24 02:00:47;;;;;;;0.30;0.30;;;;;;;;;;4973333;28;58554;-72
2023/08/24 02:03:12;;;;;;;0.27;0.20;;;;;;;;;;4975070;28;58354;-72
2023/08/24 02:05:37;;;;;;;1.02;0.25;;;;;;;;;;4971646;28;58718;-72
2023/08/24 02:08:03;;;;;;;0.10;0.10;;;;;;;;;;4971599;28;59546;-72
2023/08/24 02:10:28;;;;;;;0.13;0.13;;;;;;;;;;4971372;28;59653;-72
2023/08/24 02:12:54;;;;;;;0.38;0.30;;;;;;;;;;4976724;28;60123;-72
2023/08/24 02:15:19;;;;;;;0.30;0.30;;;;;;;;;;4975168;28;59183;-73
2023/08/24 02:17:44;;;;;;;0.15;0.15;;;;;;;;;;4974988;28;58412;-72
2023/08/24 02:20:11;;;;;;;0.30;0.22;;;;;;;;;;4977096;28;59619;-73
2023/08/24 02:22:36;;;;;;;0.20;0.20;;;;;;;;;;4973206;28;59749;-73
2023/08/24 02:25:02;;;;;;;0.20;0.20;;;;;;;;;;4976448;28;58377;-72
2023/08/24 02:27:28;;;;;;;0.20;0.20;;;;;;;;;;4973280;28;59464;-73
2023/08/24 02:29:53;;;;;;;0.40;0.20;;;;;;;;;;4978147;28;58497;-72
2023/08/24 02:32:18;;;;;;;0.20;0.20;;;;;;;;;;4975609;28;59555;-72
2023/08/24 02:34:43;;;;;;;0.37;0.37;;;;;;;;;;4975694;28;58892;-72
2023/08/24 02:37:08;;;;;;;1.70;0.50;;;;;;;;;;4975662;28;58384;-72
2023/08/24 02:39:34;;;;;;;1.00;0.20;;;;;;;;;;4976902;28;58509;-72
2023/08/24 02:42:00;;;;;;;0.30;0.20;;;;;;;;;;4975444;28;60526;-72
2023/08/24 02:44:26;;;;;;;0.20;0.20;;;;;;;;;;4977248;28;58576;-72
2023/08/24 02:46:51;;;;;;;0.10;0.10;;;;;;;;;;4972737;28;59162;-72
2023/08/24 02:49:16;;;;;;;0.47;0.20;;;;;;;;;;4976127;28;58882;-72
2023/08/24 02:51:41;;;;;;;0.22;0.22;;;;;;;;;;4974335;28;58495;-72
2023/08/24 02:54:06;;;;;;;0.20;0.20;;;;;;;;;;4976858;28;58469;-72
2023/08/24 02:56:31;;;;;;;0.30;0.30;;;;;;;;;;4973283;28;58631;-73
2023/08/24 02:58:57;;;;;;;0.20;0.20;;;;;;;;;;4976577;28;58481;-73
2023/08/24 03:01:22;;;;;;;0.20;0.20;;;;;;;;;;4972002;28;58816;-73
2023/08/24 03:03:47;;;;;;;0.30;0.30;;;;;;;;;;4977502;28;58058;-72
2023/08/24 03:06:13;;;;;;;0.10;0.10;;;;;;;;;;4973629;28;58730;-73
2023/08/24 03:08:38;;;;;;;0.10;0.10;;;;;;;;;;4971910;28;58603;-73
2023/08/24 03:11:03;;;;;;;0.20;0.20;;;;;;;;;;4976342;28;58292;-73
2023/08/24 03:13:29;;;;;;;0.20;0.20;;;;;;;;;;4971744;28;58455;-72
2023/08/24 03:15:54;;;;;;;0.10;0.10;;;;;;;;;;4972925;28;59090;-74
2023/08/24 03:18:20;;;;;;;0.28;0.20;;;;;;;;;;4976447;28;59266;-72
2023/08/24 03:20:46;;;;;;;0.40;0.40;;;;;;;;;;4972386;28;59301;-74
2023/08/24 03:23:11;;;;;;;0.10;0.10;;;;;;;;;;4971043;28;58351;-72
2023/08/24 03:25:37;;;;;;;0.47;0.47;;;;;;;;;;4971208;28;58419;-73
2023/08/24 03:28:03;;;;;;;0.20;0.20;;;;;;;;;;4973360;28;58561;-72
2023/08/24 03:30:28;;;;;;;0.20;0.20;;;;;;;;;;4968241;28;59488;-73
2023/08/24 03:32:53;;;;;;;0.30;0.10;;;;;;;;;;4972012;28;59545;-72
2023/08/24 03:35:18;;;;;;;0.20;0.20;;;;;;;;;;4974852;28;59151;-72
2023/08/24 03:37:44;;;;;;;0.20;0.20;;;;;;;;;;4975023;28;59900;-72
2023/08/24 03:40:09;;;;;;;0.30;0.20;;;;;;;;;;4971292;28;58339;-72
2023/08/24 03:42:34;;;;;;;0.30;0.30;;;;;;;;;;4959365;28;58317;-72
2023/08/24 03:45:00;;;;;;;0.17;0.17;;;;;;;;;;4974566;28;58436;-73
2023/08/24 03:47:25;;;;;;;0.40;0.40;;;;;;;;;;4972712;28;59059;-72
2023/08/24 03:49:50;;;;;;;0.17;0.17;;;;;;;;;;4974989;28;57913;-72
2023/08/24 03:52:15;;;;;;;0.50;0.50;;;;;;;;;;4970866;28;59499;-72
2023/08/24 03:54:40;;;;;;;0.20;0.10;;;;;;;;;;4972521;28;58951;-73
2023/08/24 03:57:05;;;;;;;0.20;0.20;;;;;;;;;;4977877;28;58364;-73
2023/08/24 03:59:31;;;;;;;0.30;0.30;;;;;;;;;;4975275;28;59478;-72
2023/08/24 04:01:59;;;;;;;0.20;0.20;;;;;;;;;;4971404;28;58396;-72
2023/08/24 04:04:24;;;;;;;0.20;0.20;;;;;;;;;;4970821;28;59575;-72
2023/08/24 04:06:49;;;;;;;0.47;0.38;;;;;;;;;;4968277;28;59021;-72
2023/08/24 04:09:15;;;;;;;0.25;0.25;;;;;;;;;;4976518;28;58361;-72
2023/08/24 04:11:40;;;;;;;0.35;0.28;;;;;;;;;;4972339;28;59390;-74
2023/08/24 04:14:05;;;;;;;0.40;0.40;;;;;;;;;;4972970;28;58546;-72
2023/08/24 04:16:30;;;;;;;0.30;0.30;;;;;;;;;;4974851;28;58447;-72
2023/08/24 04:18:56;;;;;;;0.20;0.20;;;;;;;;;;4971142;28;59551;-72
2023/08/24 04:21:21;;;;;;;0.30;0.30;;;;;;;;;;4976247;28;57824;-72
2023/08/24 04:23:46;;;;;;;0.20;0.20;;;;;;;;;;4971546;28;58102;-73
2023/08/24 04:26:12;;;;;;;0.10;0.10;;;;;;;;;;4971393;28;59582;-72
2023/08/24 04:28:37;;;;;;;0.30;0.25;;;;;;;;;;4970632;28;58288;-73
2023/08/24 04:31:02;;;;;;;0.20;0.20;;;;;;;;;;4971619;28;60167;-72
2023/08/24 04:33:28;;;;;;;0.23;0.23;;;;;;;;;;4973499;28;59050;-73
2023/08/24 04:35:53;;;;;;;0.43;0.43;;;;;;;;;;4970572;28;58511;-72
2023/08/24 04:38:19;;;;;;;0.10;0.10;;;;;;;;;;4976032;28;59283;-72
2023/08/24 04:40:52;;;;;;;0.30;0.20;;;;;;;;;;4970157;28;58639;-73
2023/08/24 04:43:17;;;;;;;3.63;1.63;;;;;;;;;;4971526;28;59632;-71
2023/08/24 04:45:43;;;;;;;2.30;1.40;;;;;;;;;;4971565;28;59175;-73
2023/08/24 04:48:08;;;;;;;3.80;1.00;;;;;;;;;;4974028;28;58457;-74
2023/08/24 04:50:33;;;;;;;4.27;1.80;;;;;;;;;;4967953;28;60784;-74
2023/08/24 04:52:58;;;;;;;0.87;0.60;;;;;;;;;;4976862;28;59077;-75
2023/08/24 04:55:24;;;;;;;2.92;0.85;;;;;;;;;;4954480;28;58431;-75
2023/08/24 04:57:49;;;;;;;1.63;1.27;;;;;;;;;;4967781;28;58857;-75
2023/08/24 05:00:16;;;;;;;15.57;4.32;;;;;;;;;;4973956;28;59303;-75
2023/08/24 05:02:41;;;;;;;28.00;7.13;;;;;;;;;;4969607;28;59040;-75
2023/08/24 05:05:07;;;;;;;14.27;4.00;;;;;;;;;;4971041;28;59907;-75
2023/08/24 05:07:32;;;;;;;11.55;2.95;;;;;;;;;;4972154;28;58388;-75
2023/08/24 05:09:57;;;;;;;17.58;3.78;;;;;;;;;;4973436;28;59486;-75
2023/08/24 05:12:22;;;;;;;17.48;4.15;;;;;;;;;;4969760;28;59923;-75
2023/08/24 05:14:47;;;;;;;13.35;3.63;;;;;;;;;;4972833;28;58495;-75
2023/08/24 05:17:13;;;;;;;14.65;4.00;;;;;;;;;;4970446;28;59311;-74
2023/08/24 05:19:38;;;;;;;19.83;3.72;;;;;;;;;;4971857;28;59682;-75
2023/08/24 05:22:03;;;;;;;13.67;3.83;;;;;;;;;;4977355;28;58329;-74
2023/08/24 05:24:28;;;;;;;11.43;3.10;;;;;;;;;;4972141;28;58708;-76
2023/08/24 05:26:53;;;;;;;11.00;2.97;;;;;;;;;;4969870;28;58458;-75
2023/08/24 05:29:18;;;;;;;11.63;2.47;;;;;;;;;;4972885;28;58866;-74
2023/08/24 05:31:43;;;;;;;9.80;2.40;;;;;;;;;;4971476;28;58486;-74
2023/08/24 05:34:09;;;;;;;6.87;2.60;;;;;;;;;;4973979;28;58335;-75
2023/08/24 05:36:34;;;;;;;8.80;3.10;;;;;;;;;;4971191;28;59456;-75
2023/08/24 05:38:59;;;;;;;6.47;2.63;;;;;;;;;;4974506;28;58292;-74
2023/08/24 05:41:24;;;;;;;18.75;3.53;;;;;;;;;;4970510;28;58345;-75
2023/08/24 05:43:51;;;;;;;12.13;2.87;;;;;;;;;;4974316;28;58402;-75
2023/08/24 05:46:16;;;;;;;4.03;2.20;;;;;;;;;;4974609;28;58466;-74
2023/08/24 05:48:41;;;;;;;9.77;3.83;;;;;;;;;;4975544;28;59716;-74
2023/08/24 05:51:08;;;;;;;6.00;2.27;;;;;;;;;;4977273;28;58418;-72
2023/08/24 05:53:34;;;;;;;6.35;2.20;;;;;;;;;;4977251;28;58387;-72
2023/08/24 05:55:59;;;;;;;9.20;2.63;;;;;;;;;;4976199;28;58672;-72
2023/08/24 05:58:24;;;;;;;7.77;2.07;;;;;;;;;;4971380;28;58470;-72
2023/08/24 06:00:55;;;;;;;7.37;2.47;;;;;;;;;;4976330;28;58349;-72
2023/08/24 06:03:20;;;;;;;5.05;2.28;;;;;;;;;;4975358;28;59586;-72
2023/08/24 06:05:45;;;;;;;4.00;1.85;;;;;;;;;;4974403;28;59268;-72
2023/08/24 06:08:11;;;;;;;6.10;2.38;;;;;;;;;;4977669;28;58625;-72
2023/08/24 06:10:36;;;;;;;6.87;2.33;;;;;;;;;;4973066;28;59065;-71
2023/08/24 06:13:01;;;;;;;7.20;2.63;;;;;;;;;;4978033;28;58538;-73
2023/08/24 06:15:27;;;;;;;11.93;2.60;;;;;;;;;;4958409;28;60614;-72
2023/08/24 06:17:53;;;;;;;4.88;1.73;;;;;;;;;;4961849;28;59962;-72
2023/08/24 06:20:19;;;;;;;9.00;2.40;;;;;;;;;;4978158;28;58595;-72
2023/08/24 06:22:44;;;;;;;6.95;2.38;;;;;;;;;;4974222;28;58659;-72
2023/08/24 06:25:10;;;;;;;4.95;1.73;;;;;;;;;;4974500;28;58542;-72
2023/08/24 06:27:35;;;;;;;5.68;2.42;;;;;;;;;;4971132;28;58517;-72
2023/08/24 06:30:01;;;;;;;5.07;2.20;;;;;;;;;;4976208;28;58399;-72
2023/08/24 06:32:26;;;;;;;5.85;1.75;;;;;;;;;;4974493;28;58540;-72
2023/08/24 06:34:51;;;;;;;4.57;2.55;;;;;;;;;;4975377;28;59399;-72
2023/08/24 06:37:16;;;;;;;4.23;1.67;;;;;;;;;;4961657;28;61710;-72
2023/08/24 06:39:41;;;;;;;2.33;1.27;;;;;;;;;;4977550;28;58482;-72
2023/08/24 06:42:07;;;;;;;4.97;1.88;;;;;;;;;;4974165;28;58752;-72
2023/08/24 06:44:32;;;;;;;2.37;1.07;;;;;;;;;;4976487;28;58593;-72
2023/08/24 06:46:57;;;;;;;6.73;2.03;;;;;;;;;;4975074;28;58495;-72
2023/08/24 06:49:22;;;;;;;7.50;1.70;;;;;;;;;;4973583;28;58382;-72
2023/08/24 06:51:47;;;;;;;6.00;1.73;;;;;;;;;;4973577;28;58614;-72
2023/08/24 06:54:14;;;;;;;4.88;1.55;;;;;;;;;;4975942;28;59590;-72
2023/08/24 06:56:39;;;;;;;4.05;1.48;;;;;;;;;;4971810;28;60410;-73
2023/08/24 06:59:05;;;;;;;3.33;1.20;;;;;;;;;;4974713;28;58467;-72
2023/08/24 07:01:31;;;;;;;2.60;1.20;;;;;;;;;;4972739;28;58949;-74
2023/08/24 07:03:56;;;;;;;6.57;2.60;;;;;;;;;;4971029;28;58432;-74
2023/08/24 07:06:22;;;;;;;4.75;2.13;;;;;;;;;;4972672;28;58391;-75
2023/08/24 07:08:47;;;;;;;2.70;1.10;;;;;;;;;;4973236;28;60095;-75
2023/08/24 07:11:14;;;;;;;2.77;1.17;;;;;;;;;;4973905;28;58556;-74
2023/08/24 07:13:39;;;;;;;2.95;1.08;;;;;;;;;;4973440;28;58956;-74
2023/08/24 07:16:04;;;;;;;2.50;1.33;;;;;;;;;;4976857;28;58558;-74
2023/08/24 07:18:29;;;;;;;3.43;1.13;;;;;;;;;;4975910;28;58332;-75
2023/08/24 07:20:54;;;;;;;2.20;1.60;;;;;;;;;;4975050;28;59979;-74
2023/08/24 07:23:19;;;;;;;1.95;0.80;;;;;;;;;;4973924;28;58372;-75
2023/08/24 07:25:45;;;;;;;3.60;1.25;;;;;;;;;;4969189;28;58528;-75
2023/08/24 07:28:10;;;;;;;3.63;1.20;;;;;;;;;;4976449;28;58545;-75
2023/08/24 07:30:35;;;;;;;2.93;1.90;;;;;;;;;;4970197;28;59017;-75
2023/08/24 07:33:02;;;;;;;1.75;0.88;;;;;;;;;;4975991;28;58682;-75
2023/08/24 07:35:28;;;;;;;3.77;1.33;;;;;;;;;;4972178;28;58569;-75
2023/08/24 07:37:53;;;;;;;3.47;1.07;;;;;;;;;;4973529;28;58549;-75
2023/08/24 07:40:18;;;;;;;3.60;1.70;;;;;;;;;;4975135;28;58601;-75
2023/08/24 07:42:44;;;;;;;2.37;0.97;;;;;;;;;;4970310;28;59046;-75
2023/08/24 07:45:09;;;;;;;1.60;1.00;;;;;;;;;;4976320;28;58345;-75
2023/08/24 07:47:35;;;;;;;2.93;1.30;;;;;;;;;;4973883;28;59438;-75
2023/08/24 07:50:01;;;;;;;2.70;1.30;;;;;;;;;;4974337;28;58538;-75
2023/08/24 07:52:28;;;;;;;3.88;0.98;;;;;;;;;;4974116;28;58418;-74
2023/08/24 07:54:53;;;;;;;2.70;1.10;;;;;;;;;;4973192;28;58469;-75
2023/08/24 07:57:18;;;;;;;5.30;1.77;;;;;;;;;;4974253;28;58377;-75
2023/08/24 07:59:44;;;;;;;2.05;1.17;;;;;;;;;;4971431;28;58182;-75
2023/08/24 08:02:09;;;;;;;3.70;1.58;;;;;;;;;;4973358;28;58795;-74
2023/08/24 08:04:34;;;;;;;2.55;0.75;;;;;;;;;;4973703;28;58818;-75
2023/08/24 08:06:59;;;;;;;2.50;1.00;;;;;;;;;;4971336;28;58782;-75
2023/08/24 08:09:25;;;;;;;2.83;1.23;;;;;;;;;;4961228;28;61137;-74
2023/08/24 08:11:50;;;;;;;2.60;1.20;;;;;;;;;;4976336;28;58545;-75
2023/08/24 08:14:15;;;;;;;2.13;0.82;;;;;;;;;;4975299;28;60561;-74
2023/08/24 08:16:40;;;;;;;1.73;0.73;;;;;;;;;;4970152;28;58387;-75
2023/08/24 08:19:06;;;;;;;1.63;0.87;;;;;;;;;;4974193;28;59143;-75
2023/08/24 08:21:31;;;;;;;1.50;0.77;;;;;;;;;;4970812;28;58562;-75
2023/08/24 08:23:57;;;;;;;3.77;1.10;;;;;;;;;;4976558;28;58407;-75
2023/08/24 08:26:22;;;;;;;2.10;1.10;;;;;;;;;;4974503;28;59654;-75
2023/08/24 08:28:47;;;;;;;1.97;1.43;;;;;;;;;;4968409;28;58590;-75
2023/08/24 08:31:12;;;;;;;1.80;0.50;;;;;;;;;;4975279;28;58411;-75
2023/08/24 08:33:38;;;;;;;1.60;0.88;;;;;;;;;;4973554;28;59259;-75
2023/08/24 08:36:03;;;;;;;1.50;0.80;;;;;;;;;;4977212;28;58464;-75
2023/08/24 08:38:29;;;;;;;4.65;1.13;;;;;;;;;;4973628;28;58454;-75
2023/08/24 08:40:55;;;;;;;1.85;1.05;;;;;;;;;;4971952;28;59972;-75
2023/08/24 08:43:21;;;;;;;2.67;0.80;;;;;;;;;;4972293;28;58407;-74
2023/08/24 08:45:46;;;;;;;1.83;0.90;;;;;;;;;;4973985;28;60086;-75
2023/08/24 08:48:12;;;;;;;1.38;0.95;;;;;;;;;;4970477;28;58121;-74
2023/08/24 08:50:37;;;;;;;1.97;1.20;;;;;;;;;;4970758;28;58625;-75
2023/08/24 08:53:02;;;;;;;3.10;1.27;;;;;;;;;;4973797;28;58426;-75
2023/08/24 08:55:27;;;;;;;1.10;0.50;;;;;;;;;;4970314;28;59138;-74
2023/08/24 08:57:57;;;;;;;1.33;0.83;;;;;;;;;;4976036;28;58501;-75
2023/08/24 09:00:23;;;;;;;1.33;0.80;;;;;;;;;;4972829;28;58611;-75
2023/08/24 09:02:50;;;;;;;4.68;1.27;;;;;;;;;;4973874;28;58416;-75
2023/08/24 09:05:15;;;;;;;3.15;1.33;;;;;;;;;;4970805;28;60666;-75
2023/08/24 09:07:41;;;;;;;1.93;0.77;;;;;;;;;;4970595;28;59626;-75
2023/08/24 09:10:07;;;;;;;0.88;0.63;;;;;;;;;;4974707;28;58454;-75
2023/08/24 09:12:33;;;;;;;2.08;1.10;;;;;;;;;;4973243;28;59654;-75
2023/08/24 09:14:58;;;;;;;3.97;1.50;;;;;;;;;;4970285;28;58407;-75
2023/08/24 09:17:23;;;;;;;3.50;1.02;;;;;;;;;;4976566;28;58473;-75
2023/08/24 09:19:53;;;;;;;0.70;0.68;;;;;;;;;;4972941;28;59800;-75
2023/08/24 09:22:18;;;;;;;2.20;1.02;;;;;;;;;;4958811;28;58444;-75
2023/08/24 09:24:45;;;;;;;1.63;0.97;;;;;;;;;;4974519;28;60080;-74
2023/08/24 09:27:17;;;;;;;2.30;0.93;;;;;;;;;;4976385;28;60006;-75
2023/08/24 09:29:42;;;;;;;2.53;1.30;;;;;;;;;;4978652;28;58117;-74
2023/08/24 09:32:07;;;;;;;2.13;0.90;;;;;;;;;;4975079;28;59936;-75
2023/08/24 09:34:33;;;;;;;1.27;0.40;;;;;;;;;;4975914;28;58676;-74
2023/08/24 09:36:58;;;;;;;1.37;0.70;;;;;;;;;;4975520;28;58622;-75
2023/08/24 09:39:23;;;;;;;3.20;0.70;;;;;;;;;;4975924;28;58621;-75
2023/08/24 09:41:51;;;;;;;2.70;1.43;;;;;;;;;;4975777;28;58582;-74
2023/08/24 09:44:17;;;;;;;1.23;0.60;;;;;;;;;;4977189;28;60723;-74
2023/08/24 09:46:42;;;;;;;1.85;1.02;;;;;;;;;;4974906;28;58634;-76
2023/08/24 09:49:09;;;;;;;1.07;0.63;;;;;;;;;;4976296;28;58490;-75
2023/08/24 09:51:34;;;;;;;0.77;0.65;;;;;;;;;;4976854;28;58660;-75
2023/08/24 09:54:01;;;;;;;1.73;0.77;;;;;;;;;;4978843;28;58571;-75
2023/08/24 09:56:28;;;;;;;2.15;1.00;;;;;;;;;;4972903;28;58789;-74
2023/08/24 09:58:53;;;;;;;1.73;0.80;;;;;;;;;;4974698;28;58537;-75
2023/08/24 10:01:19;;;;;;;1.35;1.25;;;;;;;;;;4974958;28;59374;-74
2023/08/24 10:03:45;;;;;;;1.67;0.82;;;;;;;;;;4976009;28;59649;-75
2023/08/24 10:06:12;;;;;;;1.20;0.90;;;;;;;;;;4972701;28;58428;-75
2023/08/24 10:08:39;;;;;;;1.77;0.63;;;;;;;;;;4975268;28;58335;-75
2023/08/24 10:11:05;;;;;;;1.92;0.93;;;;;;;;;;4977600;28;59516;-75
2023/08/24 10:13:43;;;;;;;0.88;0.73;;;;;;;;;;4975403;28;59004;-75
2023/08/24 10:16:09;;;;;;;;;;;;;;;;;;4976857;28;58734;-75
2023/08/24 10:18:36;;;;;;;0.98;0.68;;;;;;;;;;4973870;28;59410;-75
2023/08/24 10:21:01;;;;;;;0.95;0.90;;;;;;;;;;4975765;28;58541;-74
2023/08/24 10:23:28;;;;;;;0.73;0.50;;;;;;;;;;4977057;28;58374;-74
2023/08/24 10:25:54;;;;;;;3.25;0.75;;;;;;;;;;4972525;28;58560;-75
2023/08/24 10:28:20;;;;;;;1.65;0.98;;;;;;;;;;4976479;28;58834;-75
2023/08/24 10:30:45;;;;;;;0.93;0.60;;;;;;;;;;4975137;28;58711;-75
2023/08/24 10:33:11;;;;;;;3.22;1.10;;;;;;;;;;4974774;28;59953;-74
2023/08/24 10:35:37;;;;;;;0.90;0.77;;;;;;;;;;4972820;28;58386;-75
2023/08/24 10:38:03;;;;;;;0.60;0.50;;;;;;;;;;4955743;28;59360;-75
2023/08/24 10:40:35;;;;;;;2.83;1.00;;;;;;;;;;4974130;28;58287;-74
2023/08/24 10:43:07;;;;;;;0.68;0.40;;;;;;;;;;4976370;28;58239;-75
2023/08/24 10:45:51;;;;;;;1.55;1.15;;;;;;;;;;4971740;28;59848;-75
2023/08/24 10:48:16;;;;;;;1.35;1.25;;;;;;;;;;4975315;28;58415;-75
2023/08/24 10:50:41;;;;;;;2.15;0.70;;;;;;;;;;4976685;28;58613;-75
2023/08/24 10:53:10;;;;;;;1.63;0.85;;;;;;;;;;4974105;28;59307;-75
2023/08/24 10:55:37;;;;;;;1.15;0.90;;;;;;;;;;4974645;28;58502;-74
2023/08/24 10:58:02;;;;;;;1.58;0.68;;;;;;;;;;4975244;28;58649;-75
2023/08/24 11:00:29;;;;;;;1.10;0.90;;;;;;;;;;4972873;28;58508;-74
2023/08/24 11:02:54;;;;;;;0.68;0.57;;;;;;;;;;4977352;28;58395;-75
2023/08/24 11:05:30;;;;;;;1.15;0.80;;;;;;;;;;4974256;28;60139;-74
2023/08/24 11:07:59;;;;;;;1.33;0.80;;;;;;;;;;4975437;28;58383;-75
2023/08/24 11:10:25;;;;;;;3.63;0.93;;;;;;;;;;4973341;28;58621;-75
2023/08/24 11:13:06;;;;;;;1.08;0.70;;;;;;;;;;4972577;28;59309;-75
2023/08/24 11:15:32;;;;;;;1.70;0.50;;;;;;;;;;4974684;28;58453;-75
2023/08/24 11:18:16;;;;;;;1.70;1.08;;;;;;;;;;4980180;28;59647;-75
2023/08/24 11:21:01;;;;;;;1.67;1.35;;;;;;;;;;4976018;28;58934;-75
2023/08/24 11:23:27;;;;;;;1.50;0.90;;;;;;;;;;4969692;28;58421;-75
2023/08/24 11:25:59;;;;;;;1.07;1.00;;;;;;;;;;4975206;28;58522;-74
2023/08/24 11:28:25;;;;;;;1.20;1.10;;;;;;;;;;4975890;28;59217;-75
2023/08/24 11:30:51;;;;;;;1.00;0.90;;;;;;;;;;4973995;28;58822;-75
2023/08/24 11:33:17;;;;;;;0.63;0.63;;;;;;;;;;4975752;28;58727;-74
2023/08/24 11:35:43;;;;;;;1.10;0.98;;;;;;;;;;4977490;28;58135;-75
2023/08/24 11:38:09;;;;;;;1.15;0.70;;;;;;;;;;4977077;28;58698;-75
2023/08/24 11:40:34;;;;;;;1.10;0.97;;;;;;;;;;4972827;28;58955;-76
2023/08/24 11:42:59;;;;;;;0.70;0.70;;;;;;;;;;4971154;28;58497;-73
2023/08/24 11:45:29;;;;;;;2.50;0.88;;;;;;;;;;4972453;28;60627;-72
2023/08/24 11:47:54;;;;;;;1.05;0.90;;;;;;;;;;4956159;28;58520;-73
2023/08/24 11:50:19;;;;;;;1.10;0.70;;;;;;;;;;4977332;28;58460;-72
2023/08/24 11:52:45;;;;;;;0.73;0.67;;;;;;;;;;4971861;28;59947;-72
2023/08/24 11:55:11;;;;;;;2.17;0.93;;;;;;;;;;4973107;28;58573;-73
2023/08/24 11:57:36;;;;;;;2.90;0.80;;;;;;;;;;4973308;28;60377;-72
2023/08/24 12:00:07;;;;;;;2.80;1.08;;;;;;;;;;4971492;28;59386;-73
2023/08/24 12:02:32;;;;;;;1.13;0.82;;;;;;;;;;4970734;28;58363;-73
2023/08/24 12:04:58;;;;;;;1.30;0.80;;;;;;;;;;4968076;28;59109;-69
2023/08/24 12:07:23;;;;;;;5.28;1.23;;;;;;;;;;4967379;28;58972;-67
2023/08/24 12:09:52;;;;;;;1.47;0.80;;;;;;;;;;4972172;28;58422;-70
2023/08/24 12:12:20;;;;;;;1.17;1.08;;;;;;;;;;4975433;28;60610;-67
2023/08/24 12:14:46;;;;;;;;;;;;;;;;;;4970937;28;58522;-72
2023/08/24 12:17:11;;;;;;;2.90;1.30;;;;;;;;;;4974444;28;58629;-72
2023/08/24 12:19:37;;;;;;;1.05;0.88;;;;;;;;;;4967750;28;58513;-74
2023/08/24 12:22:02;;;;;;;2.75;1.10;;;;;;;;;;4972444;28;58400;-67
2023/08/24 12:24:28;;;;;;;1.03;0.60;;;;;;;;;;4974769;28;59969;-67
2023/08/24 12:27:01;;;;;;;1.98;1.10;;;;;;;;;;4976248;28;59053;-68
2023/08/24 12:29:26;;;;;;;0.70;0.70;;;;;;;;;;4974652;28;58371;-67
2023/08/24 12:31:57;;;;;;;0.88;0.88;;;;;;;;;;4974624;28;60526;-69
2023/08/24 12:34:22;;;;;;;6.10;1.45;;;;;;;;;;4959917;28;60184;-69
2023/08/24 12:36:47;;;;;;;2.83;1.35;;;;;;;;;;4975508;28;58540;-70
2023/08/24 12:39:15;;;;;;;3.45;0.85;;;;;;;;;;4972711;28;58614;-70
2023/08/24 12:41:40;;;;;;;2.17;0.88;;;;;;;;;;4972408;28;58808;-70
2023/08/24 12:44:06;;;;;;;1.70;0.90;;;;;;;;;;4972330;28;59175;-69
2023/08/24 12:46:32;;;;;;;2.15;1.15;;;;;;;;;;4972712;28;58923;-69
2023/08/24 12:48:57;;;;;;;2.63;0.85;;;;;;;;;;4969839;28;58447;-72
2023/08/24 12:51:24;;;;;;;0.90;0.60;;;;;;;;;;4974948;28;58562;-69
2023/08/24 12:53:49;;;;;;;2.40;0.70;;;;;;;;;;4973622;28;58819;-69
2023/08/24 12:56:14;;;;;;;1.27;1.17;;;;;;;;;;4974307;28;60172;-68
2023/08/24 12:58:40;;;;;;;0.75;0.73;;;;;;;;;;4971179;28;59684;-69
2023/08/24 13:01:05;;;;;;;1.73;0.80;;;;;;;;;;4973119;28;58398;-69
2023/08/24 13:03:30;;;;;;;0.83;0.80;;;;;;;;;;4970466;28;59247;-70
2023/08/24 13:05:55;;;;;;;0.97;0.80;;;;;;;;;;4971162;28;60052;-69
2023/08/24 13:08:20;;;;;;;0.55;0.55;;;;;;;;;;4973967;28;60232;-69
2023/08/24 13:10:45;;;;;;;1.20;1.08;;;;;;;;;;4971942;28;58722;-69
2023/08/24 13:13:11;;;;;;;1.27;1.00;;;;;;;;;;4970751;28;59069;-69
2023/08/24 13:15:36;;;;;;;1.10;1.00;;;;;;;;;;4954966;28;58472;-69
2023/08/24 13:18:01;;;;;;;1.60;0.73;;;;;;;;;;4973468;28;58993;-69
2023/08/24 13:20:26;;;;;;;0.90;0.90;;;;;;;;;;4959452;28;58137;-69
2023/08/24 13:22:52;;;;;;;0.73;0.73;;;;;;;;;;4973247;28;59178;-69
2023/08/24 13:25:18;;;;;;;9.75;1.00;;;;;;;;;;4971635;28;59041;-70
2023/08/24 13:27:43;;;;;;;0.95;0.75;;;;;;;;;;4974565;28;58353;-69
2023/08/24 13:30:08;;;;;;;0.60;0.60;;;;;;;;;;4974567;28;58855;-69
2023/08/24 13:32:34;;;;;;;0.90;0.73;;;;;;;;;;4974306;28;58655;-69
2023/08/24 13:35:00;;;;;;;0.60;0.60;;;;;;;;;;4973261;28;58197;-69
2023/08/24 13:37:25;;;;;;;1.63;0.57;;;;;;;;;;4972484;28;58477;-69
2023/08/24 13:39:51;;;;;;;2.35;1.15;;;;;;;;;;4955694;28;58440;-69
2023/08/24 13:42:16;;;;;;;1.40;0.80;;;;;;;;;;4955998;28;60798;-69
2023/08/24 13:44:41;;;;;;;0.43;0.43;;;;;;;;;;4970305;28;58788;-70
2023/08/24 13:47:06;;;;;;;0.93;0.77;;;;;;;;;;4974202;28;58383;-70
2023/08/24 13:49:31;;;;;;;1.55;0.85;;;;;;;;;;4973236;28;58568;-69
2023/08/24 13:51:56;;;;;;;0.77;0.60;;;;;;;;;;4973213;28;58552;-69
2023/08/24 13:54:21;;;;;;;2.70;0.63;;;;;;;;;;4973196;28;58462;-69
2023/08/24 13:56:48;;;;;;;0.80;0.50;;;;;;;;;;4975193;28;58330;-69
2023/08/24 13:59:14;;;;;;;0.63;0.63;;;;;;;;;;4973254;28;58480;-69
2023/08/24 14:01:42;;;;;;;0.80;0.70;;;;;;;;;;4973605;28;58435;-73
2023/08/24 14:04:07;;;;;;;1.25;0.60;;;;;;;;;;4973331;28;59038;-73
2023/08/24 14:06:34;;;;;;;2.38;0.98;;;;;;;;;;4969559;28;58442;-73
2023/08/24 14:09:00;;;;;;;1.67;0.95;;;;;;;;;;4978509;28;59449;-73
2023/08/24 14:11:25;;;;;;;1.15;0.80;;;;;;;;;;4974319;28;59751;-73
2023/08/24 14:13:50;;;;;;;0.80;0.80;;;;;;;;;;4977051;28;58402;-73
2023/08/24 14:16:15;;;;;;;0.80;0.80;;;;;;;;;;4973646;28;58772;-73
2023/08/24 14:18:40;;;;;;;0.87;0.80;;;;;;;;;;4975244;28;58383;-74
2023/08/24 14:21:05;;;;;;;0.53;0.53;;;;;;;;;;4982411;28;58378;-76
2023/08/24 14:23:31;;;;;;;1.47;0.70;;;;;;;;;;4972116;28;58314;-76
2023/08/24 14:25:56;;;;;;;0.68;0.68;;;;;;;;;;4977423;28;58390;-76
2023/08/24 14:28:22;;;;;;;1.00;0.60;;;;;;;;;;4977325;28;58152;-77
2023/08/24 14:30:48;;;;;;;0.93;0.77;;;;;;;;;;4975070;28;58601;-76
2023/08/24 14:33:13;;;;;;;0.90;0.63;;;;;;;;;;4979373;28;58415;-73
2023/08/24 14:35:38;;;;;;;0.60;0.60;;;;;;;;;;4956335;28;59497;-76